createdAt,value
2017-09-12T00:00:24.353Z,14.42
2017-09-12T00:02:53.839Z,14.63
2017-09-12T00:05:24.169Z,14.92
2017-09-12T00:07:53.445Z,15.00
2017-09-12T00:10:24.913Z,14.69
2017-09-12T00:12:54.314Z,15.09
2017-09-12T00:15:25.659Z,15.02
2017-09-12T00:17:56.624Z,14.72
2017-09-12T00:20:26.529Z,14.69
2017-09-12T00:22:56.678Z,14.63
2017-09-12T00:25:25.916Z,14.66
2017-09-12T00:27:56.243Z,14.82
2017-09-12T00:30:26.341Z,14.87
2017-09-12T00:32:56.134Z,14.74
2017-09-12T00:35:25.595Z,15.18
2017-09-12T00:37:56.166Z,14.84
2017-09-12T00:40:25.594Z,14.88
2017-09-12T00:42:56.599Z,14.79
2017-09-12T00:45:26.028Z,14.83
2017-09-12T00:47:55.341Z,15.22
2017-09-12T00:50:25.792Z,14.84
2017-09-12T00:52:56.166Z,14.72
2017-09-12T00:55:25.846Z,14.35
2017-09-12T00:57:55.381Z,14.66
2017-09-12T01:00:24.994Z,14.63
2017-09-12T01:02:54.769Z,14.52
2017-09-12T01:05:24.890Z,14.47
2017-09-12T01:07:55.223Z,14.59
2017-09-12T01:10:25.969Z,14.83
2017-09-12T01:12:55.238Z,14.76
2017-09-12T01:15:24.582Z,14.73
2017-09-12T01:17:53.922Z,14.87
2017-09-12T01:20:25.100Z,14.89
2017-09-12T01:22:54.581Z,14.79
2017-09-12T01:25:24.853Z,14.71
2017-09-12T01:27:55.163Z,14.71
2017-09-12T01:30:24.562Z,14.45
2017-09-12T01:32:54.589Z,14.81
2017-09-12T01:35:24.149Z,14.23
2017-09-12T01:37:54.617Z,14.35
2017-09-12T01:40:24.466Z,14.44
2017-09-12T01:42:54.756Z,14.61
2017-09-12T01:45:25.042Z,14.81
2017-09-12T01:47:54.459Z,14.98
2017-09-12T01:50:27.537Z,14.57
2017-09-12T01:52:58.071Z,14.52
2017-09-12T01:55:28.966Z,14.33
2017-09-12T01:57:58.821Z,14.54
2017-09-12T02:00:29.637Z,14.53
2017-09-12T02:02:59.573Z,14.50
2017-09-12T02:05:33.877Z,14.55
2017-09-12T02:08:05.174Z,14.66
2017-09-12T02:10:34.901Z,14.76
2017-09-12T02:13:06.997Z,15.21
2017-09-12T02:15:36.544Z,15.17
2017-09-12T02:18:07.952Z,14.96
2017-09-12T02:20:38.949Z,15.29
2017-09-12T02:23:12.820Z,14.90
2017-09-12T02:25:43.338Z,14.75
2017-09-12T02:28:12.574Z,15.01
2017-09-12T02:30:42.803Z,15.26
2017-09-12T02:33:13.886Z,15.03
2017-09-12T02:35:45.130Z,14.82
2017-09-12T02:38:15.114Z,15.24
2017-09-12T02:40:44.356Z,14.97
2017-09-12T02:43:13.757Z,14.76
2017-09-12T02:45:44.467Z,14.84
2017-09-12T02:48:14.662Z,14.63
2017-09-12T02:50:43.934Z,14.51
2017-09-12T02:53:13.949Z,14.61
2017-09-12T02:55:43.905Z,14.55
2017-09-12T02:58:13.241Z,14.56
2017-09-12T03:00:44.614Z,14.74
2017-09-12T03:03:14.713Z,14.72
2017-09-12T03:05:44.333Z,14.56
2017-09-12T03:08:14.309Z,14.64
2017-09-12T03:10:43.853Z,14.62
2017-09-12T03:13:14.385Z,14.36
2017-09-12T03:15:44.025Z,14.56
2017-09-12T03:18:14.175Z,14.77
2017-09-12T03:20:43.448Z,14.74
2017-09-12T03:23:13.844Z,15.01
2017-09-12T03:25:43.437Z,14.60
2017-09-12T03:28:13.794Z,14.77
2017-09-12T03:30:43.583Z,14.82
2017-09-12T03:33:12.865Z,14.57
2017-09-12T03:35:43.619Z,14.41
2017-09-12T03:38:13.750Z,14.62
2017-09-12T03:40:43.053Z,14.70
2017-09-12T03:43:12.304Z,15.08
2017-09-12T03:45:41.489Z,14.91
2017-09-12T03:48:11.645Z,14.85
2017-09-12T03:50:41.845Z,14.92
2017-09-12T03:53:13.757Z,15.04
2017-09-12T03:55:43.768Z,14.70
2017-09-12T03:58:15.650Z,14.80
2017-09-12T04:00:45.373Z,15.14
2017-09-12T04:03:14.929Z,14.67
2017-09-12T04:05:44.236Z,14.84
2017-09-12T04:08:13.998Z,14.82
2017-09-12T04:10:43.782Z,15.20
2017-09-12T04:13:13.438Z,14.81
2017-09-12T04:15:43.226Z,14.92
2017-09-12T04:18:13.079Z,14.97
2017-09-12T04:20:43.046Z,14.82
2017-09-12T04:23:13.869Z,14.92
2017-09-12T04:25:44.757Z,15.08
2017-09-12T04:28:15.117Z,14.91
2017-09-12T04:30:45.100Z,14.89
2017-09-12T04:33:14.849Z,15.13
2017-09-12T04:35:45.037Z,15.54
2017-09-12T04:38:14.839Z,15.37
2017-09-12T04:40:44.588Z,15.06
2017-09-12T04:43:14.245Z,15.58
2017-09-12T04:45:43.687Z,15.21
2017-09-12T04:48:13.168Z,14.69
2017-09-12T04:50:44.611Z,14.47
2017-09-12T04:53:14.520Z,14.39
2017-09-12T04:55:44.541Z,14.47
2017-09-12T04:58:14.466Z,14.94
2017-09-12T05:00:44.069Z,14.98
2017-09-12T05:03:13.625Z,14.83
2017-09-12T05:05:43.637Z,15.19
2017-09-12T05:08:13.037Z,15.00
2017-09-12T05:10:45.452Z,15.04
2017-09-12T05:13:16.878Z,14.57
2017-09-12T05:15:47.414Z,14.94
2017-09-12T05:18:17.714Z,14.84
2017-09-12T05:20:47.761Z,14.57
2017-09-12T05:23:18.926Z,14.43
2017-09-12T05:25:48.477Z,14.68
2017-09-12T05:28:18.635Z,14.88
2017-09-12T05:30:47.937Z,14.81
2017-09-12T05:33:17.561Z,14.83
2017-09-12T05:35:47.724Z,15.03
2017-09-12T05:38:18.009Z,15.28
2017-09-12T05:40:48.385Z,15.25
2017-09-12T05:43:18.785Z,14.96
2017-09-12T05:45:48.978Z,15.33
2017-09-12T05:48:18.320Z,15.52
2017-09-12T05:50:48.611Z,15.44
2017-09-12T05:53:17.942Z,15.41
2017-09-12T05:55:48.616Z,15.48
2017-09-12T05:58:17.941Z,15.38
2017-09-12T06:00:47.166Z,15.47
2017-09-12T06:03:17.693Z,15.50
2017-09-12T06:05:48.886Z,15.73
2017-09-12T06:08:18.334Z,15.69
2017-09-12T06:10:48.645Z,15.55
2017-09-12T06:13:19.006Z,15.36
2017-09-12T06:15:49.050Z,15.42
2017-09-12T06:18:19.309Z,15.33
2017-09-12T06:20:49.945Z,15.29
2017-09-12T06:23:20.813Z,15.07
2017-09-12T06:25:50.345Z,15.07
2017-09-12T06:28:19.644Z,14.81
2017-09-12T06:30:48.916Z,15.08
2017-09-12T06:33:18.449Z,15.03
2017-09-12T06:35:48.262Z,14.98
2017-09-12T06:38:17.853Z,14.91
2017-09-12T06:40:47.289Z,15.48
2017-09-12T06:43:18.907Z,15.53
2017-09-12T06:45:55.677Z,15.17
2017-09-12T06:48:27.923Z,15.35
2017-09-12T06:50:58.441Z,15.56
2017-09-12T06:53:29.458Z,15.29
2017-09-12T06:55:59.455Z,15.35
2017-09-12T06:58:29.853Z,15.07
2017-09-12T07:01:21.871Z,15.44
2017-09-12T07:03:53.037Z,15.07
2017-09-12T07:06:23.711Z,15.13
2017-09-12T07:08:54.634Z,15.36
2017-09-12T07:11:26.017Z,15.54
2017-09-12T07:13:56.646Z,15.49
2017-09-12T07:16:28.306Z,15.59
2017-09-12T07:18:58.530Z,15.18
2017-09-12T07:21:30.945Z,15.04
2017-09-12T07:24:06.501Z,15.21
2017-09-12T07:26:36.455Z,15.20
2017-09-12T07:29:12.257Z,14.99
2017-09-12T07:31:43.611Z,14.86
2017-09-12T07:34:12.869Z,14.66
2017-09-12T07:36:42.561Z,14.87
2017-09-12T07:39:12.669Z,15.03
2017-09-12T07:41:42.979Z,14.92
2017-09-12T07:44:13.881Z,14.95
2017-09-12T07:46:44.174Z,15.44
2017-09-12T07:49:14.676Z,15.34
2017-09-12T07:51:49.481Z,15.57
2017-09-12T07:54:18.880Z,15.55
2017-09-12T07:56:49.128Z,15.66
2017-09-12T07:59:19.782Z,15.88
2017-09-12T08:01:49.926Z,16.16
2017-09-12T08:04:23.945Z,15.95
2017-09-12T08:06:53.262Z,15.59
2017-09-12T08:09:22.732Z,16.01
2017-09-12T08:11:52.026Z,16.11
2017-09-12T08:14:22.226Z,16.11
2017-09-12T08:16:51.732Z,16.25
2017-09-12T08:19:22.044Z,16.11
2017-09-12T08:21:52.076Z,15.93
2017-09-12T08:24:22.521Z,16.09
2017-09-12T08:26:52.716Z,16.38
2017-09-12T08:29:22.021Z,16.49
2017-09-12T08:31:51.874Z,16.53
2017-09-12T08:34:21.592Z,16.90
2017-09-12T08:36:51.059Z,17.15
2017-09-12T08:39:20.742Z,17.40
2017-09-12T08:41:50.121Z,17.27
2017-09-12T08:44:20.133Z,16.86
2017-09-12T08:46:54.068Z,16.97
2017-09-12T08:49:24.162Z,17.20
2017-09-12T08:51:54.614Z,16.86
2017-09-12T08:54:24.549Z,16.82
2017-09-12T08:56:54.545Z,16.42
2017-09-12T08:59:23.833Z,16.19
2017-09-12T09:01:54.638Z,16.30
2017-09-12T09:07:26.040Z,15.95
2017-09-12T09:09:56.408Z,16.30
2017-09-12T09:12:33.158Z,15.92
2017-09-12T09:15:04.228Z,15.81
2017-09-12T09:17:48.908Z,16.32
2017-09-12T09:20:20.390Z,16.78
2017-09-12T09:22:52.929Z,16.90
2017-09-12T09:25:23.608Z,16.95
2017-09-12T09:27:56.058Z,16.74
2017-09-12T09:30:26.248Z,16.75
2017-09-12T09:32:55.587Z,17.12
2017-09-12T09:35:24.860Z,16.95
2017-09-12T09:37:54.541Z,17.18
2017-09-12T09:40:23.892Z,17.69
2017-09-12T09:42:54.381Z,17.74
2017-09-12T09:45:24.685Z,17.68
2017-09-12T09:47:54.021Z,17.59
2017-09-12T09:50:24.056Z,17.81
2017-09-12T09:52:55.613Z,17.06
2017-09-12T09:55:26.482Z,16.32
2017-09-12T09:57:55.810Z,16.53
2017-09-12T10:00:25.969Z,17.06
2017-09-12T10:02:55.302Z,17.52
2017-09-12T10:05:24.958Z,17.93
2017-09-12T10:07:55.001Z,17.57
2017-09-12T10:10:24.685Z,18.27
2017-09-12T10:12:55.083Z,18.16
2017-09-12T10:15:24.958Z,18.22
2017-09-12T10:17:54.356Z,17.94
2017-09-12T10:20:23.663Z,17.93
2017-09-12T10:22:52.962Z,17.89
2017-09-12T10:25:23.823Z,18.27
2017-09-12T10:27:53.487Z,18.41
2017-09-12T10:30:23.482Z,18.37
2017-09-12T10:32:56.735Z,18.49
2017-09-12T10:35:27.134Z,18.93
2017-09-12T10:37:56.502Z,18.72
2017-09-12T10:40:26.373Z,18.04
2017-09-12T10:42:55.730Z,17.59
2017-09-12T10:45:25.217Z,17.12
2017-09-12T10:47:55.838Z,17.47
2017-09-12T10:50:57.653Z,17.89
2017-09-12T10:53:27.080Z,17.95
2017-09-12T11:02:34.055Z,18.17
2017-09-12T11:05:08.133Z,18.38
2017-09-12T11:07:38.567Z,18.69
2017-09-12T11:10:08.946Z,19.13
2017-09-12T11:12:43.760Z,19.43
2017-09-12T11:15:13.186Z,19.09
2017-09-12T11:17:42.425Z,18.90
2017-09-12T11:20:12.070Z,18.84
2017-09-12T11:22:41.606Z,18.85
2017-09-12T11:25:10.906Z,18.98
2017-09-12T11:27:41.325Z,18.10
2017-09-12T11:30:10.606Z,17.50
2017-09-12T11:32:40.013Z,17.51
2017-09-12T11:35:10.305Z,17.65
2017-09-12T11:37:39.553Z,17.76
2017-09-12T11:40:08.900Z,18.22
2017-09-12T11:42:38.545Z,17.95
2017-09-12T11:45:08.650Z,17.96
2017-09-12T11:47:38.254Z,18.47
2017-09-12T11:50:07.474Z,18.30
2017-09-12T11:52:36.758Z,18.59
2017-09-12T11:55:06.402Z,18.96
2017-09-12T11:57:36.521Z,18.93
2017-09-12T12:00:06.542Z,18.73
2017-09-12T12:02:36.843Z,18.56
2017-09-12T12:05:06.110Z,17.72
2017-09-12T12:07:35.413Z,17.33
2017-09-12T12:10:04.887Z,17.44
2017-09-12T12:12:34.145Z,17.26
2017-09-12T12:15:04.686Z,17.09
2017-09-12T12:17:34.785Z,17.23
2017-09-12T12:20:04.455Z,17.46
2017-09-12T12:25:06.494Z,17.87
2017-09-12T12:27:36.113Z,17.95
2017-09-12T12:30:09.261Z,18.20
2017-09-12T12:32:38.678Z,18.46
2017-09-12T12:35:08.901Z,18.96
2017-09-12T12:37:39.298Z,19.27
2017-09-12T12:40:10.455Z,19.17
2017-09-12T12:42:42.479Z,19.22
2017-09-12T12:45:14.687Z,18.69
2017-09-12T12:47:44.828Z,18.68
2017-09-12T12:50:14.954Z,18.46
2017-09-12T12:52:44.393Z,18.12
2017-09-12T12:55:13.652Z,18.16
2017-09-12T12:57:43.965Z,17.97
2017-09-12T13:00:14.264Z,17.73
2017-09-12T13:02:43.550Z,18.02
2017-09-12T13:05:13.108Z,18.44
2017-09-12T13:07:42.354Z,18.61
2017-09-12T13:10:11.643Z,18.56
2017-09-12T13:12:43.132Z,18.62
2017-09-12T13:15:13.590Z,18.81
2017-09-12T13:17:43.821Z,18.50
2017-09-12T13:20:14.352Z,18.86
2017-09-12T13:22:43.821Z,18.82
2017-09-12T13:25:15.984Z,18.78
2017-09-12T13:27:46.414Z,18.93
2017-09-12T13:30:19.800Z,19.12
2017-09-12T13:32:49.816Z,19.08
2017-09-12T13:35:19.741Z,18.83
2017-09-12T13:37:51.640Z,18.95
2017-09-12T13:40:27.570Z,19.16
2017-09-12T13:42:56.886Z,18.81
2017-09-12T13:45:26.137Z,18.95
2017-09-12T13:47:57.325Z,18.99
2017-09-12T13:50:27.453Z,19.53
2017-09-12T13:52:57.043Z,19.97
2017-09-12T13:55:26.429Z,19.76
2017-09-12T13:57:56.814Z,19.80
2017-09-12T14:00:26.270Z,19.49
2017-09-12T14:02:59.323Z,19.58
2017-09-12T14:05:28.932Z,19.30
2017-09-12T14:07:59.277Z,19.19
2017-09-12T14:10:28.476Z,19.37
2017-09-12T14:12:57.830Z,19.10
2017-09-12T14:15:31.579Z,19.12
2017-09-12T14:18:03.947Z,19.17
2017-09-12T14:20:35.088Z,19.53
2017-09-12T14:23:06.902Z,19.74
2017-09-12T14:25:36.806Z,20.08
2017-09-12T14:28:07.381Z,19.65
2017-09-12T14:30:38.369Z,19.08
2017-09-12T14:33:07.996Z,19.19
2017-09-12T14:35:38.317Z,19.55
2017-09-12T14:38:12.622Z,19.42
2017-09-12T14:40:42.632Z,19.25
2017-09-12T14:43:16.640Z,19.60
2017-09-12T14:45:45.913Z,19.45
2017-09-12T14:48:16.176Z,19.04
2017-09-12T14:50:46.057Z,18.89
2017-09-12T14:53:15.898Z,19.09
2017-09-12T14:55:45.309Z,19.24
2017-09-12T14:58:15.146Z,19.11
2017-09-12T15:00:44.459Z,19.05
2017-09-12T15:03:15.997Z,18.99
2017-09-12T15:05:49.586Z,18.82
2017-09-12T15:08:19.709Z,19.00
2017-09-12T15:10:50.433Z,18.99
2017-09-12T15:13:20.874Z,19.06
2017-09-12T15:15:51.109Z,19.20
2017-09-12T15:18:22.534Z,18.61
2017-09-12T15:20:52.852Z,18.08
2017-09-12T15:23:23.138Z,18.23
2017-09-12T15:25:52.494Z,18.05
2017-09-12T15:28:22.084Z,17.99
2017-09-12T15:30:53.529Z,17.84
2017-09-12T15:33:23.607Z,17.98
2017-09-12T15:35:52.868Z,17.80
2017-09-12T15:38:22.145Z,17.68
2017-09-12T15:40:53.219Z,17.85
2017-09-12T15:45:58.289Z,18.24
2017-09-12T15:48:27.645Z,18.35
2017-09-12T15:50:58.043Z,18.12
2017-09-12T15:53:27.589Z,17.89
2017-09-12T15:55:58.648Z,18.11
2017-09-12T15:58:27.901Z,18.11
2017-09-12T16:00:57.958Z,18.14
2017-09-12T16:03:27.298Z,18.29
2017-09-12T16:05:56.562Z,18.38
2017-09-12T16:08:26.955Z,18.04
2017-09-12T16:10:57.088Z,18.12
2017-09-12T16:13:28.406Z,18.05
2017-09-12T16:15:57.750Z,17.72
2017-09-12T16:18:28.752Z,17.40
2017-09-12T16:20:58.790Z,17.43
2017-09-12T16:23:29.218Z,17.65
2017-09-12T16:25:58.710Z,17.48
2017-09-12T16:28:28.682Z,17.22
2017-09-12T16:30:58.845Z,17.49
2017-09-12T16:33:30.239Z,17.33
2017-09-12T16:35:59.944Z,17.12
2017-09-12T16:38:30.423Z,17.44
2017-09-12T16:41:03.007Z,17.29
2017-09-12T16:43:32.690Z,17.20
2017-09-12T16:46:04.330Z,17.38
2017-09-12T16:48:34.760Z,17.47
2017-09-12T16:51:06.589Z,17.30
2017-09-12T16:53:38.255Z,17.27
2017-09-12T16:56:09.591Z,17.50
2017-09-12T16:58:38.998Z,17.31
2017-09-12T17:01:11.129Z,17.29
2017-09-12T17:03:40.473Z,17.08
2017-09-12T17:06:11.895Z,16.89
2017-09-12T17:08:43.201Z,17.02
2017-09-12T17:11:19.833Z,16.86
2017-09-12T17:13:50.236Z,16.80
2017-09-12T17:16:20.673Z,16.64
2017-09-12T17:18:51.235Z,16.86
2017-09-12T17:21:22.043Z,16.90
2017-09-12T17:23:52.059Z,16.83
2017-09-12T17:26:21.928Z,16.98
2017-09-12T17:28:51.222Z,16.80
2017-09-12T17:31:21.537Z,16.90
2017-09-12T17:33:52.908Z,16.79
2017-09-12T17:36:22.922Z,17.13
2017-09-12T17:38:52.618Z,17.31
2017-09-12T17:42:01.237Z,17.35
2017-09-12T17:44:30.268Z,17.05
2017-09-12T17:46:59.169Z,17.03
2017-09-12T17:49:28.722Z,17.10
2017-09-12T17:52:34.182Z,17.14
2017-09-12T17:55:27.392Z,17.26
2017-09-12T17:58:02.887Z,17.16
2017-09-12T18:00:53.969Z,17.20
2017-09-12T18:03:47.746Z,17.30
2017-09-12T18:06:22.422Z,17.13
2017-09-12T18:08:53.844Z,16.78
2017-09-12T18:11:24.938Z,16.86
2017-09-12T18:13:56.522Z,16.89
2017-09-12T18:16:35.105Z,16.50
2017-09-12T18:19:27.826Z,16.87
2017-09-12T18:27:19.500Z,16.73
2017-09-12T18:29:54.202Z,16.73
2017-09-12T18:33:17.232Z,16.80
2017-09-12T18:35:53.369Z,17.00
2017-09-12T18:38:43.701Z,17.11
2017-09-12T18:41:30.236Z,17.13
2017-09-12T18:44:06.217Z,17.04
2017-09-12T18:46:45.902Z,16.95
2017-09-12T18:49:18.375Z,16.76
2017-09-12T18:51:52.915Z,16.56
2017-09-12T18:54:29.150Z,16.49
2017-09-12T18:57:05.138Z,16.35
2017-09-12T19:03:11.535Z,16.09
2017-09-12T19:05:43.532Z,15.95
2017-09-12T19:08:30.228Z,15.84
2017-09-12T19:11:14.867Z,15.69
2017-09-12T19:14:03.080Z,15.60
2017-09-12T19:16:37.790Z,15.55
2017-09-12T19:19:10.821Z,15.57
2017-09-12T19:21:48.830Z,15.61
2017-09-12T19:24:21.943Z,15.59
2017-09-12T19:27:08.516Z,15.59
2017-09-12T19:29:45.320Z,15.40
2017-09-12T19:33:02.752Z,15.12
2017-09-12T19:35:52.789Z,15.30
2017-09-12T19:38:29.500Z,15.25
2017-09-12T19:41:25.533Z,15.42
2017-09-12T19:43:59.613Z,15.08
2017-09-12T19:46:41.157Z,15.08
2017-09-12T19:49:17.602Z,15.17
2017-09-12T19:54:32.427Z,15.35
2017-09-12T19:57:08.991Z,15.65
2017-09-12T19:59:46.112Z,15.45
2017-09-12T20:02:28.640Z,15.42
2017-09-12T20:05:21.066Z,15.11
2017-09-12T20:07:56.085Z,14.92
2017-09-12T20:10:28.527Z,14.56
2017-09-12T20:13:01.655Z,14.87
2017-09-12T20:15:35.905Z,14.82
2017-09-12T20:18:09.326Z,14.85
2017-09-12T20:23:42.980Z,14.49
2017-09-12T20:26:26.199Z,14.39
2017-09-12T20:29:09.760Z,13.74
2017-09-12T20:31:46.349Z,14.05
2017-09-12T20:34:18.704Z,14.22
2017-09-12T20:36:49.132Z,14.19
2017-09-12T20:39:23.305Z,14.32
2017-09-12T20:41:57.360Z,14.49
2017-09-12T20:44:30.883Z,14.54
2017-09-12T20:47:07.995Z,14.48
2017-09-12T20:50:26.993Z,14.66
2017-09-12T20:53:03.763Z,14.66
2017-09-12T20:55:39.545Z,14.63
2017-09-12T21:00:49.369Z,14.52
2017-09-12T21:03:31.826Z,14.24
2017-09-12T21:06:16.339Z,14.20
2017-09-12T21:08:54.639Z,14.34
2017-09-12T21:11:27.639Z,14.24
2017-09-12T21:13:58.963Z,14.25
2017-09-12T21:16:29.852Z,14.53
2017-09-12T21:19:02.898Z,14.21
2017-09-12T21:21:39.313Z,14.32
2017-09-12T21:24:10.942Z,14.24
2017-09-12T21:26:53.100Z,14.31
2017-09-12T21:32:23.686Z,14.37
2017-09-12T21:34:55.694Z,14.23
2017-09-12T21:37:48.548Z,14.34
2017-09-12T21:40:19.462Z,14.10
2017-09-12T21:43:04.660Z,14.26
2017-09-12T21:45:36.821Z,14.19
2017-09-12T21:51:11.183Z,14.20
2017-09-12T21:53:48.643Z,14.08
2017-09-12T21:56:22.356Z,14.32
2017-09-12T21:58:55.113Z,13.99
2017-09-12T22:01:40.503Z,14.26
2017-09-12T22:04:16.100Z,13.90
2017-09-12T22:06:54.534Z,14.17
2017-09-12T22:09:26.413Z,14.16
2017-09-12T22:11:59.592Z,14.20
2017-09-12T22:14:36.376Z,14.21
2017-09-12T22:20:10.772Z,13.83
2017-09-12T22:22:45.526Z,13.76
2017-09-12T22:25:18.084Z,13.77
2017-09-12T22:27:52.520Z,13.70
2017-09-12T22:30:30.192Z,13.94
2017-09-12T22:33:04.885Z,13.95
2017-09-12T22:35:39.241Z,14.17
2017-09-12T22:38:16.186Z,14.34
2017-09-12T22:40:50.465Z,13.96
2017-09-12T22:43:44.918Z,14.43
2017-09-12T22:46:17.145Z,13.92
2017-09-12T22:48:50.678Z,14.10
2017-09-12T22:51:23.184Z,14.13
2017-09-12T22:53:55.745Z,14.48
2017-09-12T22:56:32.960Z,14.54
2017-09-12T22:59:06.443Z,14.35
2017-09-12T23:01:58.325Z,14.09
2017-09-12T23:04:32.316Z,14.23
2017-09-12T23:07:12.714Z,14.57
2017-09-12T23:09:50.102Z,14.57
2017-09-12T23:12:28.235Z,14.84
2017-09-12T23:15:10.467Z,14.73
2017-09-12T23:17:48.013Z,14.68
2017-09-12T23:20:19.124Z,14.59
2017-09-12T23:23:18.169Z,14.44
2017-09-12T23:25:50.884Z,14.44
2017-09-12T23:28:33.455Z,14.27
2017-09-12T23:31:13.375Z,13.96
2017-09-12T23:33:49.212Z,14.16
2017-09-12T23:36:23.615Z,14.17
2017-09-12T23:39:01.380Z,13.98
2017-09-12T23:41:35.230Z,14.28
2017-09-12T23:44:16.177Z,14.58
2017-09-12T23:46:53.295Z,14.21
2017-09-12T23:49:26.259Z,14.28
2017-09-12T23:52:04.437Z,14.16
2017-09-12T23:54:42.477Z,13.80
2017-09-12T23:57:20.287Z,13.71
2017-09-12T23:59:56.841Z,14.04
